createdAt,value
2017-06-03T00:00:59.205Z,0
2017-06-03T00:01:59.221Z,0
2017-06-03T00:02:58.991Z,0
2017-06-03T00:03:58.949Z,0
2017-06-03T00:04:59.535Z,0
2017-06-03T00:05:59.586Z,0
2017-06-03T00:06:59.290Z,0
2017-06-03T00:07:59.554Z,0
2017-06-03T00:08:59.248Z,0
2017-06-03T00:09:59.718Z,0
2017-06-03T00:10:59.269Z,0
2017-06-03T00:11:59.587Z,0
2017-06-03T00:12:59.893Z,0
2017-06-03T00:13:59.607Z,0
2017-06-03T00:14:59.352Z,0
2017-06-03T00:15:59.099Z,0
2017-06-03T00:16:59.323Z,0
2017-06-03T00:17:59.068Z,0
2017-06-03T00:18:59.028Z,0
2017-06-03T00:19:59.656Z,0
2017-06-03T00:20:59.670Z,0
2017-06-03T00:21:59.678Z,0
2017-06-03T00:22:59.742Z,0
2017-06-03T00:23:59.741Z,0
2017-06-03T00:24:59.704Z,0
2017-06-03T00:25:59.453Z,0
2017-06-03T00:26:59.100Z,0
2017-06-03T00:27:59.155Z,0
2017-06-03T00:28:59.733Z,0
2017-06-03T00:29:59.479Z,0
2017-06-03T00:30:59.535Z,0
2017-06-03T00:31:59.756Z,0
2017-06-03T00:32:59.769Z,0
2017-06-03T00:33:59.465Z,0
2017-06-03T00:34:59.526Z,0
2017-06-03T00:35:58.885Z,0
2017-06-03T00:36:59.800Z,0
2017-06-03T00:37:59.811Z,0
2017-06-03T00:38:59.506Z,0
2017-06-03T00:39:59.261Z,0
2017-06-03T00:40:59.905Z,0
2017-06-03T00:41:59.640Z,0
2017-06-03T00:42:59.855Z,0
2017-06-03T00:43:59.556Z,0
2017-06-03T00:44:59.875Z,0
2017-06-03T00:45:59.264Z,0
2017-06-03T00:46:59.942Z,0
2017-06-03T00:48:00.020Z,0
2017-06-03T00:48:59.289Z,0
2017-06-03T00:49:59.925Z,0
2017-06-03T00:50:59.308Z,0
2017-06-03T00:51:59.004Z,0
2017-06-03T00:52:59.322Z,0
2017-06-03T00:53:59.956Z,0
2017-06-03T00:54:59.697Z,0
2017-06-03T00:55:59.661Z,0
2017-06-03T00:56:59.357Z,0
2017-06-03T00:57:59.991Z,0
2017-06-03T00:58:59.695Z,0
2017-06-03T00:59:59.741Z,0
2017-06-03T01:00:59.760Z,0
2017-06-03T01:01:59.769Z,0
2017-06-03T01:03:00.057Z,0
2017-06-03T01:03:59.420Z,0
2017-06-03T01:05:00.049Z,0
2017-06-03T01:05:59.486Z,0
2017-06-03T01:06:59.449Z,0
2017-06-03T01:07:59.761Z,0
2017-06-03T01:08:59.465Z,0
2017-06-03T01:10:00.094Z,0
2017-06-03T01:10:59.816Z,0
2017-06-03T01:11:59.801Z,0
2017-06-03T01:12:59.818Z,0
2017-06-03T01:13:59.871Z,0
2017-06-03T01:15:00.137Z,0
2017-06-03T01:16:00.150Z,0
2017-06-03T01:17:00.218Z,0
2017-06-03T01:18:00.169Z,0
2017-06-03T01:19:00.228Z,0
2017-06-03T01:20:00.182Z,0
2017-06-03T01:20:59.882Z,0
2017-06-03T01:21:59.890Z,0
2017-06-03T01:22:59.902Z,0
2017-06-03T01:24:00.249Z,0
2017-06-03T01:25:00.230Z,0
2017-06-03T01:26:00.241Z,0
2017-06-03T01:26:59.625Z,0
2017-06-03T01:28:00.310Z,0
2017-06-03T01:29:00.268Z,0
2017-06-03T01:30:00.012Z,0
2017-06-03T01:30:59.970Z,0
2017-06-03T01:32:00.343Z,0
2017-06-03T01:32:59.677Z,0
2017-06-03T01:34:00.304Z,0
2017-06-03T01:35:00.006Z,0
2017-06-03T01:36:00.018Z,0
2017-06-03T01:37:00.075Z,0
2017-06-03T01:38:00.342Z,0
2017-06-03T01:39:00.357Z,0
2017-06-03T01:40:00.410Z,0
2017-06-03T01:41:00.368Z,0
2017-06-03T01:42:00.390Z,0
2017-06-03T01:43:00.075Z,0
2017-06-03T01:44:00.084Z,0
2017-06-03T01:45:00.115Z,0
2017-06-03T01:46:00.416Z,0
2017-06-03T01:47:00.118Z,0
2017-06-03T01:47:59.814Z,0
2017-06-03T01:49:00.130Z,0
2017-06-03T01:50:00.186Z,0
2017-06-03T01:51:00.257Z,0
2017-06-03T01:52:00.469Z,0
2017-06-03T01:52:59.855Z,0
2017-06-03T01:54:00.490Z,0
2017-06-03T01:55:00.187Z,0
2017-06-03T01:56:00.191Z,0
2017-06-03T01:57:00.512Z,0
2017-06-03T01:58:00.524Z,0
2017-06-03T01:59:00.581Z,0
2017-06-03T02:00:00.228Z,0
2017-06-03T02:01:00.845Z,0
2017-06-03T02:02:00.246Z,0
2017-06-03T02:03:00.615Z,0
2017-06-03T02:04:00.626Z,0
2017-06-03T02:05:00.581Z,0
2017-06-03T02:06:00.594Z,0
2017-06-03T02:06:59.976Z,0
2017-06-03T02:08:00.034Z,0
2017-06-03T02:09:00.305Z,0
2017-06-03T02:10:00.624Z,0
2017-06-03T02:11:00.319Z,0
2017-06-03T02:12:00.640Z,0
2017-06-03T02:13:00.341Z,0
2017-06-03T02:14:00.034Z,0
2017-06-03T02:15:00.668Z,0
2017-06-03T02:16:00.365Z,0
2017-06-03T02:17:00.422Z,0
2017-06-03T02:18:00.691Z,0
2017-06-03T02:19:00.441Z,0
2017-06-03T02:20:00.448Z,0
2017-06-03T02:21:00.493Z,0
2017-06-03T02:22:00.779Z,0
2017-06-03T02:23:00.786Z,0
2017-06-03T02:24:00.171Z,0
2017-06-03T02:25:00.439Z,0
2017-06-03T02:26:00.776Z,0
2017-06-03T02:27:00.150Z,0
2017-06-03T02:28:00.779Z,0
2017-06-03T02:28:59.544Z,0
2017-06-03T02:30:00.481Z,0
2017-06-03T02:31:00.183Z,0
2017-06-03T02:32:00.506Z,0
2017-06-03T02:33:00.511Z,0
2017-06-03T02:34:00.832Z,0
2017-06-03T02:35:00.842Z,0
2017-06-03T02:36:00.849Z,0
2017-06-03T02:37:00.863Z,0
2017-06-03T02:38:00.873Z,0
2017-06-03T02:39:00.868Z,0
2017-06-03T02:40:00.569Z,0
2017-06-03T02:41:00.326Z,0
2017-06-03T02:42:00.962Z,0
2017-06-03T02:43:00.915Z,0
2017-06-03T02:44:00.038Z,0
2017-06-03T02:45:01.013Z,0
2017-06-03T02:46:00.986Z,0
2017-06-03T02:47:00.637Z,0
2017-06-03T02:48:01.012Z,0
2017-06-03T02:49:00.968Z,0
2017-06-03T02:50:00.976Z,0
2017-06-03T02:51:00.681Z,0
2017-06-03T02:52:00.994Z,0
2017-06-03T02:53:00.068Z,0
2017-06-03T02:54:01.066Z,0
2017-06-03T02:55:01.034Z,0
2017-06-03T02:56:01.027Z,0
2017-06-03T02:57:00.777Z,0
2017-06-03T02:58:01.143Z,0
2017-06-03T02:59:01.105Z,0
2017-06-03T03:00:01.062Z,0
2017-06-03T03:01:01.074Z,0
2017-06-03T03:02:01.079Z,0
2017-06-03T03:03:01.088Z,0
2017-06-03T03:04:00.536Z,0
2017-06-03T03:05:00.844Z,0
2017-06-03T03:06:01.115Z,0
2017-06-03T03:07:00.811Z,0
2017-06-03T03:08:01.129Z,0
2017-06-03T03:09:01.142Z,0
2017-06-03T03:10:00.888Z,0
2017-06-03T03:11:00.846Z,0
2017-06-03T03:12:00.855Z,0
2017-06-03T03:13:01.228Z,0
2017-06-03T03:14:00.567Z,0
2017-06-03T03:15:00.943Z,0
2017-06-03T03:16:00.943Z,0
2017-06-03T03:17:00.960Z,0
2017-06-03T03:18:00.594Z,0
2017-06-03T03:19:00.604Z,0
2017-06-03T03:20:01.338Z,0
2017-06-03T03:21:01.250Z,0
2017-06-03T03:22:01.297Z,0
2017-06-03T03:23:01.315Z,0
2017-06-03T03:24:00.964Z,0
2017-06-03T03:25:01.339Z,0
2017-06-03T03:26:00.987Z,0
2017-06-03T03:27:01.038Z,0
2017-06-03T03:28:00.684Z,0
2017-06-03T03:29:01.326Z,0
2017-06-03T03:30:01.321Z,0
2017-06-03T03:31:01.333Z,0
2017-06-03T03:32:01.647Z,0
2017-06-03T03:33:01.089Z,0
2017-06-03T03:34:01.053Z,0
2017-06-03T03:35:01.106Z,0
2017-06-03T03:36:00.754Z,0
2017-06-03T03:37:01.458Z,0
2017-06-03T03:38:01.393Z,0
2017-06-03T03:39:01.090Z,0
2017-06-03T03:40:01.408Z,0
2017-06-03T03:41:01.111Z,0
2017-06-03T03:42:01.423Z,0
2017-06-03T03:43:00.812Z,0
2017-06-03T03:44:01.495Z,0
2017-06-03T03:45:01.455Z,0
2017-06-03T03:46:00.846Z,0
2017-06-03T03:47:01.475Z,0
2017-06-03T03:48:01.221Z,0
2017-06-03T03:49:01.179Z,0
2017-06-03T03:50:00.887Z,0
2017-06-03T03:51:01.534Z,0
2017-06-03T03:52:01.200Z,0
2017-06-03T03:53:00.902Z,0
2017-06-03T03:54:01.370Z,0
2017-06-03T03:55:01.547Z,0
2017-06-03T03:56:01.546Z,0
2017-06-03T03:57:01.296Z,0
2017-06-03T03:58:01.307Z,0
2017-06-03T03:59:01.004Z,0
2017-06-03T04:00:01.324Z,0
2017-06-03T04:01:01.590Z,0
2017-06-03T04:02:01.648Z,0
2017-06-03T04:03:01.296Z,0
2017-06-03T04:04:01.623Z,0
2017-06-03T04:05:01.624Z,0
2017-06-03T04:06:01.322Z,0
2017-06-03T04:07:01.023Z,0
2017-06-03T04:08:01.653Z,0
2017-06-03T04:09:01.356Z,0
2017-06-03T04:10:01.362Z,0
2017-06-03T04:11:01.678Z,0
2017-06-03T04:12:01.683Z,0
2017-06-03T04:13:02.098Z,0
2017-06-03T04:14:01.699Z,0
2017-06-03T04:15:01.407Z,0
2017-06-03T04:16:01.777Z,0
2017-06-03T04:17:01.468Z,0
2017-06-03T04:18:01.478Z,0
2017-06-03T04:19:01.437Z,0
2017-06-03T04:20:01.142Z,0
2017-06-03T04:21:01.503Z,0
2017-06-03T04:22:01.776Z,0
2017-06-03T04:23:01.778Z,0
2017-06-03T04:24:01.791Z,0
2017-06-03T04:25:01.180Z,0
2017-06-03T04:26:01.861Z,0
2017-06-03T04:27:01.250Z,0
2017-06-03T04:28:01.511Z,0
2017-06-03T04:29:01.840Z,0
2017-06-03T04:30:01.539Z,0
2017-06-03T04:31:01.857Z,0
2017-06-03T04:32:01.866Z,0
2017-06-03T04:33:01.561Z,0
2017-06-03T04:34:01.567Z,0
2017-06-03T04:35:01.888Z,0
2017-06-03T04:36:01.955Z,0
2017-06-03T04:37:01.908Z,0
2017-06-03T04:38:01.916Z,0
2017-06-03T04:39:01.949Z,0
2017-06-03T04:40:01.955Z,0
2017-06-03T04:41:01.939Z,0
2017-06-03T04:42:01.956Z,0
2017-06-03T04:43:01.954Z,0
2017-06-03T04:44:01.036Z,0
2017-06-03T04:45:01.664Z,0
2017-06-03T04:46:01.676Z,0
2017-06-03T04:47:01.679Z,5
2017-06-03T04:48:01.691Z,5
2017-06-03T04:49:01.393Z,5
2017-06-03T04:50:01.709Z,5
2017-06-03T04:51:01.714Z,5
2017-06-03T04:52:01.776Z,5
2017-06-03T04:53:01.868Z,5
2017-06-03T04:54:01.740Z,5
2017-06-03T04:55:01.749Z,5
2017-06-03T04:56:02.073Z,5
2017-06-03T04:57:02.131Z,5
2017-06-03T04:58:01.826Z,5
2017-06-03T04:59:01.484Z,10
2017-06-03T05:00:01.851Z,10
2017-06-03T05:01:01.794Z,10
2017-06-03T05:02:02.125Z,10
2017-06-03T05:03:01.248Z,10
2017-06-03T05:04:02.199Z,10
2017-06-03T05:05:01.835Z,10
2017-06-03T05:06:01.902Z,15
2017-06-03T05:07:01.880Z,15
2017-06-03T05:08:02.224Z,15
2017-06-03T05:09:01.881Z,15
2017-06-03T05:10:01.934Z,15
2017-06-03T05:11:01.945Z,15
2017-06-03T05:12:01.951Z,15
2017-06-03T05:13:02.221Z,10
2017-06-03T05:14:02.228Z,10
2017-06-03T05:15:02.239Z,10
2017-06-03T05:16:01.940Z,10
2017-06-03T05:17:02.257Z,5
2017-06-03T05:18:02.313Z,5
2017-06-03T05:19:02.015Z,5
2017-06-03T05:20:02.288Z,5
2017-06-03T05:21:02.389Z,5
2017-06-03T05:22:01.997Z,5
2017-06-03T05:23:02.307Z,5
2017-06-03T05:24:02.313Z,5
2017-06-03T05:25:02.011Z,5
2017-06-03T05:26:02.077Z,5
2017-06-03T05:27:02.030Z,5
2017-06-03T05:28:02.042Z,10
2017-06-03T05:29:02.055Z,10
2017-06-03T05:30:02.718Z,10
2017-06-03T05:31:02.066Z,10
2017-06-03T05:32:02.075Z,10
2017-06-03T05:33:01.779Z,10
2017-06-03T05:34:01.781Z,10
2017-06-03T05:35:02.513Z,10
2017-06-03T05:36:02.423Z,10
2017-06-03T05:37:02.168Z,10
2017-06-03T05:38:02.434Z,10
2017-06-03T05:39:02.134Z,10
2017-06-03T05:40:02.143Z,10
2017-06-03T05:41:02.515Z,10
2017-06-03T05:42:02.263Z,10
2017-06-03T05:43:02.171Z,10
2017-06-03T05:44:01.863Z,10
2017-06-03T05:45:01.875Z,10
2017-06-03T05:46:01.939Z,10
2017-06-03T05:47:02.255Z,10
2017-06-03T05:48:02.526Z,10
2017-06-03T05:49:02.633Z,10
2017-06-03T05:50:02.545Z,10
2017-06-03T05:51:02.543Z,10
2017-06-03T05:52:02.249Z,10
2017-06-03T05:53:01.944Z,10
2017-06-03T05:54:02.266Z,15
2017-06-03T05:55:02.274Z,15
2017-06-03T05:56:02.597Z,15
2017-06-03T05:57:02.608Z,20
2017-06-03T05:58:02.611Z,25
2017-06-03T05:59:02.312Z,25
2017-06-03T06:00:02.315Z,30
2017-06-03T06:01:02.331Z,30
2017-06-03T06:02:02.648Z,35
2017-06-03T06:03:02.656Z,40
2017-06-03T06:04:02.665Z,40
2017-06-03T06:05:02.774Z,35
2017-06-03T06:06:02.733Z,30
2017-06-03T06:07:02.378Z,20
2017-06-03T06:08:02.438Z,15
2017-06-03T06:09:02.083Z,15
2017-06-03T06:10:02.722Z,10
2017-06-03T06:11:02.726Z,10
2017-06-03T06:12:02.740Z,10
2017-06-03T06:13:02.485Z,10
2017-06-03T06:14:02.135Z,10
2017-06-03T06:15:02.747Z,10
2017-06-03T06:16:02.461Z,10
2017-06-03T06:17:02.833Z,10
2017-06-03T06:18:02.788Z,10
2017-06-03T06:19:02.802Z,10
2017-06-03T06:20:02.496Z,10
2017-06-03T06:21:02.877Z,10
2017-06-03T06:22:02.828Z,10
2017-06-03T06:23:02.879Z,10
2017-06-03T06:24:02.535Z,10
2017-06-03T06:25:02.856Z,10
2017-06-03T06:26:02.604Z,10
2017-06-03T06:27:02.876Z,10
2017-06-03T06:28:02.580Z,10
2017-06-03T06:29:02.900Z,15
2017-06-03T06:30:02.899Z,15
2017-06-03T06:31:02.910Z,15
2017-06-03T06:32:02.298Z,20
2017-06-03T06:33:02.357Z,20
2017-06-03T06:34:02.938Z,20
2017-06-03T06:35:02.951Z,20
2017-06-03T06:36:02.694Z,20
2017-06-03T06:37:02.344Z,20
2017-06-03T06:38:03.023Z,20
2017-06-03T06:39:02.723Z,20
2017-06-03T06:40:03.043Z,20
2017-06-03T06:41:02.689Z,20
2017-06-03T06:42:03.013Z,20
2017-06-03T06:43:03.065Z,20
2017-06-03T06:44:03.076Z,25
2017-06-03T06:45:02.413Z,25
2017-06-03T06:46:03.142Z,25
2017-06-03T06:47:03.050Z,30
2017-06-03T06:48:03.106Z,35
2017-06-03T06:49:02.441Z,45
2017-06-03T06:50:02.773Z,55
2017-06-03T06:51:02.774Z,55
2017-06-03T06:52:02.886Z,55
2017-06-03T06:53:02.796Z,45
2017-06-03T06:54:03.140Z,40
2017-06-03T06:55:03.173Z,40
2017-06-03T06:56:02.868Z,35
2017-06-03T06:57:03.143Z,35
2017-06-03T06:58:02.836Z,35
2017-06-03T06:59:03.155Z,35
2017-06-03T07:00:03.170Z,35
2017-06-03T07:01:03.301Z,30
2017-06-03T07:02:03.188Z,30
2017-06-03T07:03:03.193Z,30
2017-06-03T07:04:02.948Z,25
2017-06-03T07:05:02.895Z,25
2017-06-03T07:06:03.282Z,20
2017-06-03T07:07:02.609Z,20
2017-06-03T07:08:03.250Z,20
2017-06-03T07:09:02.625Z,20
2017-06-03T07:10:03.307Z,15
2017-06-03T07:11:03.272Z,15
2017-06-03T07:12:03.325Z,20
2017-06-03T07:13:03.585Z,20
2017-06-03T07:14:03.033Z,20
2017-06-03T07:15:02.988Z,20
2017-06-03T07:16:03.312Z,25
2017-06-03T07:17:03.318Z,25
2017-06-03T07:18:02.703Z,30
2017-06-03T07:19:02.715Z,30
2017-06-03T07:20:02.723Z,35
2017-06-03T07:21:03.093Z,35
2017-06-03T07:22:03.451Z,40
2017-06-03T07:23:03.370Z,45
2017-06-03T07:24:03.388Z,45
2017-06-03T07:25:03.392Z,45
2017-06-03T07:26:02.829Z,45
2017-06-03T07:27:03.421Z,45
2017-06-03T07:28:03.111Z,45
2017-06-03T07:29:03.127Z,45
2017-06-03T07:30:03.435Z,45
2017-06-03T07:31:03.231Z,45
2017-06-03T07:32:02.835Z,40
2017-06-03T07:33:03.464Z,40
2017-06-03T07:34:03.160Z,35
2017-06-03T07:35:03.482Z,35
2017-06-03T07:36:03.542Z,35
2017-06-03T07:37:03.192Z,40
2017-06-03T07:38:03.509Z,40
2017-06-03T07:39:03.516Z,40
2017-06-03T07:40:03.525Z,45
2017-06-03T07:41:03.218Z,45
2017-06-03T07:42:03.535Z,50
2017-06-03T07:43:03.298Z,55
2017-06-03T07:44:03.259Z,60
2017-06-03T07:45:03.670Z,60
2017-06-03T07:46:03.654Z,60
2017-06-03T07:47:03.272Z,60
2017-06-03T07:48:03.282Z,55
2017-06-03T07:49:02.986Z,55
2017-06-03T07:50:02.681Z,55
2017-06-03T07:51:03.624Z,50
2017-06-03T07:52:03.625Z,50
2017-06-03T07:53:03.692Z,50
2017-06-03T07:54:03.339Z,50
2017-06-03T07:55:03.348Z,50
2017-06-03T07:56:03.360Z,55
2017-06-03T07:57:03.420Z,60
2017-06-03T07:58:03.379Z,60
2017-06-03T07:59:03.700Z,65
2017-06-03T08:00:03.709Z,65
2017-06-03T08:01:03.190Z,70
2017-06-03T08:02:03.436Z,80
2017-06-03T08:03:03.775Z,90
2017-06-03T08:04:03.426Z,95
2017-06-03T08:05:03.795Z,95
2017-06-03T08:06:03.762Z,100
2017-06-03T08:07:03.823Z,105
2017-06-03T08:08:03.778Z,110
2017-06-03T08:09:03.211Z,110
2017-06-03T08:10:03.795Z,110
2017-06-03T08:11:03.856Z,115
2017-06-03T08:12:03.812Z,120
2017-06-03T08:13:03.557Z,125
2017-06-03T08:14:18.403Z,130
2017-06-03T08:15:03.943Z,130
2017-06-03T08:16:02.915Z,135
2017-06-03T08:17:03.558Z,140
2017-06-03T08:18:03.870Z,140
2017-06-03T08:19:03.581Z,135
2017-06-03T08:20:03.886Z,130
2017-06-03T08:21:03.947Z,125
2017-06-03T08:22:03.331Z,125
2017-06-03T08:23:03.652Z,120
2017-06-03T08:24:03.664Z,115
2017-06-03T08:25:03.306Z,120
2017-06-03T08:26:03.992Z,115
2017-06-03T08:27:03.654Z,115
2017-06-03T08:28:03.962Z,105
2017-06-03T08:29:03.341Z,105
2017-06-03T08:32:03.071Z,115
2017-06-03T08:33:03.699Z,115
2017-06-03T08:34:03.703Z,120
2017-06-03T08:35:03.768Z,115
2017-06-03T08:36:18.607Z,105
2017-06-03T08:37:04.175Z,100
2017-06-03T08:38:04.055Z,105
2017-06-03T08:39:03.802Z,105
2017-06-03T08:40:03.769Z,110
2017-06-03T08:41:03.773Z,115
2017-06-03T08:42:04.092Z,110
2017-06-03T08:43:03.840Z,110
2017-06-03T08:45:03.856Z,105
2017-06-03T08:46:18.702Z,105
2017-06-03T08:47:03.516Z,105
2017-06-03T08:48:18.457Z,100
2017-06-03T08:50:03.857Z,95
2017-06-03T08:51:03.582Z,100
2017-06-03T08:52:18.447Z,100
2017-06-03T08:54:04.258Z,100
2017-06-03T08:55:04.216Z,95
2017-06-03T08:56:03.297Z,100
2017-06-03T08:57:04.235Z,100
2017-06-03T08:58:04.299Z,95
2017-06-03T08:59:03.639Z,100
2017-06-03T09:00:18.276Z,100
2017-06-03T09:01:03.967Z,100
2017-06-03T09:02:04.030Z,100
2017-06-03T09:03:04.368Z,100
2017-06-03T09:04:03.371Z,100
2017-06-03T09:05:04.317Z,100
2017-06-03T09:06:03.759Z,100
2017-06-03T09:07:18.912Z,100
2017-06-03T09:08:04.036Z,95
2017-06-03T09:09:18.620Z,95
2017-06-03T09:10:04.111Z,95
2017-06-03T09:11:19.099Z,90
2017-06-03T09:12:04.080Z,85
2017-06-03T09:13:04.400Z,90
2017-06-03T09:14:19.028Z,90
2017-06-03T09:15:04.105Z,90
2017-06-03T09:16:19.001Z,90
2017-06-03T09:17:18.732Z,90
2017-06-03T09:18:03.829Z,90
2017-06-03T09:19:04.149Z,90
2017-06-03T09:20:04.519Z,95
2017-06-03T09:21:04.267Z,95
2017-06-03T09:22:33.632Z,100
2017-06-03T09:23:19.065Z,100
2017-06-03T09:24:04.505Z,100
2017-06-03T09:25:04.568Z,100
2017-06-03T09:26:19.108Z,105
2017-06-03T09:27:03.606Z,105
2017-06-03T09:28:04.622Z,105
2017-06-03T09:29:04.293Z,100
2017-06-03T09:30:03.947Z,100
2017-06-03T09:31:04.327Z,100
2017-06-03T09:32:04.601Z,95
2017-06-03T09:33:04.646Z,95
2017-06-03T09:34:19.182Z,95
2017-06-03T09:35:03.994Z,95
2017-06-03T09:36:18.941Z,90
2017-06-03T09:37:19.209Z,90
2017-06-03T09:38:04.647Z,85
2017-06-03T09:39:04.342Z,85
2017-06-03T09:40:04.666Z,80
2017-06-03T09:41:04.108Z,80
2017-06-03T09:42:04.381Z,85
2017-06-03T09:43:04.694Z,85
2017-06-03T09:44:04.715Z,85
2017-06-03T09:45:04.824Z,90
2017-06-03T09:47:04.792Z,95
2017-06-03T09:48:04.435Z,90
2017-06-03T09:49:04.240Z,90
2017-06-03T09:50:04.196Z,90
2017-06-03T09:51:04.517Z,90
2017-06-03T09:52:19.103Z,90
2017-06-03T09:53:04.541Z,90
2017-06-03T09:54:19.073Z,85
2017-06-03T09:55:04.199Z,85
2017-06-03T09:56:04.885Z,80
2017-06-03T09:57:04.843Z,80
2017-06-03T09:58:04.538Z,80
2017-06-03T09:59:19.431Z,80
2017-06-03T10:00:19.439Z,80
2017-06-03T10:01:34.026Z,80
2017-06-03T10:02:33.723Z,80
2017-06-03T10:03:19.471Z,80
2017-06-03T10:04:04.906Z,80
2017-06-03T10:05:19.488Z,80
2017-06-03T10:06:19.502Z,85
2017-06-03T10:07:04.945Z,85
2017-06-03T10:08:19.260Z,85
2017-06-03T10:09:04.650Z,85
2017-06-03T10:10:19.541Z,85
2017-06-03T10:11:04.361Z,90
2017-06-03T10:12:18.949Z,85
2017-06-03T10:13:05.026Z,85
2017-06-03T10:14:05.014Z,85
2017-06-03T10:15:04.398Z,85
2017-06-03T10:17:05.099Z,85
2017-06-03T10:18:05.052Z,85
2017-06-03T10:19:05.118Z,85
2017-06-03T10:20:05.178Z,85
2017-06-03T10:21:19.087Z,85
2017-06-03T10:22:19.358Z,85
2017-06-03T10:23:04.799Z,85
2017-06-03T10:24:05.114Z,85
2017-06-03T10:25:05.124Z,85
2017-06-03T10:26:05.143Z,90
2017-06-03T10:27:05.201Z,85
2017-06-03T10:28:19.831Z,90
2017-06-03T10:30:19.802Z,90
2017-06-03T10:31:04.905Z,90
2017-06-03T10:32:34.395Z,90
2017-06-03T10:33:19.829Z,90
2017-06-03T10:34:19.798Z,95
2017-06-03T10:35:04.921Z,90
2017-06-03T10:36:19.533Z,90
2017-06-03T10:37:05.257Z,90
2017-06-03T10:38:04.947Z,90
2017-06-03T10:39:05.271Z,90
2017-06-03T10:41:19.862Z,90
2017-06-03T10:42:19.875Z,90
2017-06-03T10:43:05.312Z,90
2017-06-03T10:44:05.425Z,90
2017-06-03T10:45:19.903Z,90
2017-06-03T10:46:19.609Z,90
2017-06-03T10:47:04.731Z,90
2017-06-03T10:48:19.933Z,90
2017-06-03T10:49:05.066Z,90
2017-06-03T10:50:05.121Z,90
2017-06-03T10:51:05.085Z,90
2017-06-03T10:52:05.402Z,90
2017-06-03T10:54:05.503Z,85
2017-06-03T10:55:04.912Z,80
2017-06-03T10:56:05.143Z,80
2017-06-03T10:57:04.889Z,80
2017-06-03T10:58:05.207Z,75
2017-06-03T10:59:05.172Z,75
2017-06-03T11:00:05.229Z,75
2017-06-03T11:01:05.497Z,70
2017-06-03T11:02:19.460Z,70
2017-06-03T11:03:05.875Z,75
2017-06-03T11:04:04.909Z,70
2017-06-03T11:05:05.231Z,75
2017-06-03T11:06:05.704Z,75
2017-06-03T11:07:19.876Z,75
2017-06-03T11:08:34.406Z,75
2017-06-03T11:09:19.847Z,75
2017-06-03T11:10:05.285Z,75
2017-06-03T11:11:20.177Z,75
2017-06-03T11:12:05.306Z,75
2017-06-03T11:13:05.309Z,80
2017-06-03T11:14:05.645Z,75
2017-06-03T11:15:05.331Z,75
2017-06-03T11:16:05.656Z,75
2017-06-03T11:17:20.240Z,70
2017-06-03T11:18:20.247Z,70
2017-06-03T11:19:05.379Z,65
2017-06-03T11:20:05.385Z,65
2017-06-03T11:21:20.281Z,65
2017-06-03T11:23:05.467Z,65
2017-06-03T11:24:05.793Z,70
2017-06-03T11:25:34.597Z,70
2017-06-03T11:26:05.759Z,70
2017-06-03T11:27:05.776Z,70
2017-06-03T11:28:05.777Z,70
2017-06-03T11:29:05.836Z,75
2017-06-03T11:30:20.420Z,75
2017-06-03T11:31:05.857Z,75
2017-06-03T11:32:05.507Z,75
2017-06-03T11:33:34.400Z,75
2017-06-03T11:34:05.533Z,75
2017-06-03T11:35:05.587Z,75
2017-06-03T11:36:19.807Z,75
2017-06-03T11:37:05.875Z,75
2017-06-03T11:38:34.716Z,75
2017-06-03T11:39:05.575Z,75
2017-06-03T11:40:19.859Z,70
2017-06-03T11:41:05.614Z,70
2017-06-03T11:42:05.605Z,70
2017-06-03T11:43:05.974Z,70
2017-06-03T11:44:05.344Z,75
2017-06-03T11:45:05.953Z,75
2017-06-03T11:46:05.965Z,75
2017-06-03T11:47:05.655Z,75
2017-06-03T11:48:20.603Z,75
2017-06-03T11:49:05.675Z,75
2017-06-03T11:51:06.005Z,75
2017-06-03T11:52:20.595Z,75
2017-06-03T11:53:06.029Z,70
2017-06-03T11:54:20.674Z,70
2017-06-03T11:55:05.531Z,70
2017-06-03T11:56:06.118Z,70
2017-06-03T11:57:05.447Z,70
2017-06-03T11:58:05.452Z,70
2017-06-03T11:59:06.086Z,70
2017-06-03T12:00:20.100Z,70
2017-06-03T12:01:05.843Z,70
2017-06-03T12:02:05.891Z,70
2017-06-03T12:03:05.825Z,75
2017-06-03T12:04:05.822Z,70
2017-06-03T12:05:05.885Z,70
2017-06-03T12:06:05.586Z,70
2017-06-03T12:07:05.865Z,65
2017-06-03T12:09:05.937Z,70
2017-06-03T12:10:06.247Z,75
2017-06-03T12:11:20.884Z,80
2017-06-03T12:12:05.960Z,85
2017-06-03T12:13:20.850Z,85
2017-06-03T12:14:05.979Z,90
2017-06-03T12:15:20.560Z,90
2017-06-03T12:16:05.953Z,90
2017-06-03T12:17:20.533Z,85
2017-06-03T12:18:05.969Z,85
2017-06-03T12:19:06.029Z,80
2017-06-03T12:20:20.882Z,85
2017-06-03T12:21:06.409Z,85
2017-06-03T12:22:06.323Z,80
2017-06-03T12:24:20.656Z,80
2017-06-03T12:27:06.113Z,70
2017-06-03T12:28:05.766Z,80
2017-06-03T12:29:06.450Z,75
2017-06-03T12:30:05.794Z,75
2017-06-03T12:31:06.103Z,75
2017-06-03T12:33:06.443Z,75
2017-06-03T12:34:06.147Z,75
2017-06-03T12:35:06.197Z,70
2017-06-03T12:36:05.902Z,75
2017-06-03T12:37:06.483Z,65
2017-06-03T12:38:21.067Z,60
2017-06-03T12:39:06.193Z,60
2017-06-03T12:40:06.302Z,65
2017-06-03T12:41:06.213Z,60
2017-06-03T12:42:35.375Z,60
2017-06-03T12:43:35.688Z,60
2017-06-03T12:44:20.817Z,60
2017-06-03T12:45:05.629Z,60
2017-06-03T12:46:06.320Z,60
2017-06-03T12:49:06.298Z,65
2017-06-03T12:50:06.308Z,70
2017-06-03T12:51:06.061Z,65
2017-06-03T12:52:20.964Z,75
2017-06-03T12:53:06.343Z,75
2017-06-03T12:54:06.660Z,75
2017-06-03T12:55:06.681Z,70
2017-06-03T12:56:06.735Z,70
2017-06-03T12:57:06.386Z,65
2017-06-03T12:58:06.709Z,65
2017-06-03T12:59:06.091Z,60
2017-06-03T13:00:06.778Z,55
2017-06-03T13:01:21.102Z,55
2017-06-03T13:02:06.750Z,55
2017-06-03T13:04:06.771Z,50
2017-06-03T13:06:06.893Z,50
2017-06-03T13:07:35.687Z,50
2017-06-03T13:08:06.550Z,50
2017-06-03T13:09:06.874Z,50
2017-06-03T13:10:21.144Z,50
2017-06-03T13:11:06.839Z,55
2017-06-03T13:12:06.906Z,55
2017-06-03T13:13:06.866Z,55
2017-06-03T13:14:06.923Z,55
2017-06-03T13:15:06.879Z,50
2017-06-03T13:16:06.321Z,50
2017-06-03T13:17:06.622Z,50
2017-06-03T13:18:07.015Z,50
2017-06-03T13:19:06.662Z,45
2017-06-03T13:20:35.769Z,40
2017-06-03T13:21:06.643Z,40
2017-06-03T13:22:21.541Z,40
2017-06-03T13:23:06.969Z,40
2017-06-03T13:24:06.983Z,35
2017-06-03T13:25:06.986Z,30
2017-06-03T13:26:06.998Z,25
2017-06-03T13:27:21.579Z,25
2017-06-03T13:28:20.970Z,20
2017-06-03T13:30:06.830Z,15
2017-06-03T13:31:06.744Z,15
2017-06-03T13:33:06.461Z,10
2017-06-03T13:34:07.141Z,10
2017-06-03T13:35:21.351Z,10
2017-06-03T13:36:21.365Z,10
2017-06-03T13:37:21.058Z,5
2017-06-03T13:38:07.126Z,5
2017-06-03T13:39:07.194Z,5
2017-06-03T13:40:06.880Z,5
2017-06-03T13:41:07.147Z,5
2017-06-03T13:42:07.215Z,5
2017-06-03T13:43:07.212Z,5
2017-06-03T13:44:21.744Z,5
2017-06-03T13:45:07.185Z,5
2017-06-03T13:46:06.669Z,5
2017-06-03T13:47:06.943Z,5
2017-06-03T13:48:06.587Z,5
2017-06-03T13:49:07.268Z,5
2017-06-03T13:50:06.969Z,10
2017-06-03T13:51:07.231Z,10
2017-06-03T13:52:07.245Z,10
2017-06-03T13:53:21.825Z,10
2017-06-03T13:54:21.830Z,15
2017-06-03T13:55:07.319Z,15
2017-06-03T13:56:07.331Z,20
2017-06-03T13:57:07.008Z,20
2017-06-03T13:58:21.245Z,25
2017-06-03T13:59:07.299Z,25
2017-06-03T14:00:21.957Z,30
2017-06-03T14:01:07.058Z,35
2017-06-03T14:02:06.715Z,40
2017-06-03T14:03:07.035Z,45
2017-06-03T14:04:07.034Z,50
2017-06-03T14:05:07.355Z,55
2017-06-03T14:06:07.463Z,50
2017-06-03T14:07:06.801Z,55
2017-06-03T14:08:07.090Z,55
2017-06-03T14:09:07.083Z,60
2017-06-03T14:10:21.397Z,65
2017-06-03T14:11:21.979Z,65
2017-06-03T14:12:07.425Z,65
2017-06-03T14:13:06.809Z,60
2017-06-03T14:14:22.005Z,60
2017-06-03T14:15:06.870Z,60
2017-06-03T14:16:07.193Z,60
2017-06-03T14:17:07.518Z,55
2017-06-03T14:18:36.303Z,55
2017-06-03T14:19:22.098Z,55
2017-06-03T14:20:07.224Z,50
2017-06-03T14:21:21.546Z,50
2017-06-03T14:22:07.242Z,50
2017-06-03T14:23:07.563Z,50
2017-06-03T14:24:06.954Z,50
2017-06-03T14:25:22.106Z,50
2017-06-03T14:26:07.537Z,50
2017-06-03T14:27:07.237Z,50
2017-06-03T14:28:36.754Z,50
2017-06-03T14:29:07.626Z,50
2017-06-03T14:30:07.929Z,50
2017-06-03T14:31:07.586Z,50
2017-06-03T14:32:07.641Z,50
2017-06-03T14:34:22.177Z,55
2017-06-03T14:35:07.306Z,55
2017-06-03T14:36:07.628Z,55
2017-06-03T14:37:22.252Z,55
2017-06-03T14:38:22.266Z,55
2017-06-03T14:39:22.306Z,55
2017-06-03T14:40:07.666Z,50
2017-06-03T14:41:07.355Z,50
2017-06-03T14:42:07.117Z,50
2017-06-03T14:43:07.470Z,50
2017-06-03T14:44:07.690Z,50
2017-06-03T14:45:07.391Z,50
2017-06-03T14:46:07.088Z,50
2017-06-03T14:47:21.982Z,50
2017-06-03T14:48:07.778Z,50
2017-06-03T14:49:07.736Z,45